Hafnia Taurus — 9HA4252 — position and weather

sailwx.info

Track history (hours):
 
Tides and Currents Weather Stations Pressure Air Temp Water Temp Dewpoint Dewpoint Depression Visibility Wind Speed Wind Dir Waves Ship Positions

Hafnia Taurus

Last reported at 2018-May-23 16:27 UTC. Time now 2018-Jun-18 13:35 UTC.
Position N 15°15' E 071°37'.
Warning: this ship's position is 25 days out of date.

Length 183 m; draft 11.8 m.

Type: Ship. MMSI: 249459000.

Date/timePositionNaut miles runAvg speedWind from/ knotsBaromVisibWave heightAir tempDewpointWater temp
2018-May-23 16:27N 15°15' E 071°37'2813.1
2018-May-23 14:17N 15°38' E 071°20'1012.8
2018-May-23 13:29N 15°46' E 071°14'6313.0
2018-May-23 08:38N 16°37' E 070°35'4913.3
2018-May-23 04:56N 17°16' E 070°05'512.8
2018-May-23 04:30N 17°21' E 070°02'612.9
2018-May-23 04:00N 17°26' E 069°58'2113.2
2018-May-23 02:24N 17°43' E 069°45'1413.4
2018-May-23 01:22N 17°54' E 069°36'513.3
2018-May-23 01:00N 17°58' E 069°33'713.3
2018-May-23 00:27N 18°04' E 069°29'613.5
2018-May-23 00:00N 18°09' E 069°25'713.5
2018-May-22 23:30N 18°15' E 069°21'713.3
2018-May-22 22:59N 18°20' E 069°17'713.1
2018-May-22 22:29N 18°26' E 069°13'612.9
2018-May-22 22:00N 18°31' E 069°09'713.0
2018-May-22 21:30N 18°36' E 069°05'713.2
2018-May-22 21:00N 18°41' E 069°00'1013.1
2018-May-22 20:14N 18°49' E 068°54'312.9
2018-May-22 20:00N 18°52' E 068°52'612.9
2018-May-22 19:30N 18°57' E 068°48'713.0
2018-May-22 19:00N 19°02' E 068°44'1312.9
2018-May-22 18:01N 19°13' E 068°37'113.0
2018-May-22 17:59N 19°13' E 068°36'812.8
2018-May-22 17:22N 19°19' E 068°31'513.0
2018-May-22 16:59N 19°23' E 068°28'613.2
2018-May-22 16:30N 19°28' E 068°24'713.2
2018-May-22 15:59N 19°34' E 068°20'613.3
2018-May-22 15:30N 19°39' E 068°16'713.4
2018-May-22 15:00N 19°45' E 068°12'2313.3
2018-May-22 13:16N 20°02' E 067°55'413.6
2018-May-22 13:00N 20°04' E 067°53'713.3
2018-May-22 12:30N 20°09' E 067°48'713.2
2018-May-22 12:00N 20°15' E 067°45'812.9
2018-May-22 11:23N 20°23' E 067°42'  
Track history (hours):
 
Tides and Currents Weather Stations Pressure Air Temp Water Temp Dewpoint Dewpoint Depression Visibility Wind Speed Wind Dir Waves Ship Positions

Hafnia Taurus

Last reported at 2018-May-23 16:27 UTC. Time now 2018-Jun-18 13:35 UTC.
Position N 15°15' E 071°37'.
Warning: this ship's position is 25 days out of date.

Length 183 m; draft 11.8 m.

Type: Ship. MMSI: 249459000.

Date/timePositionNaut miles runAvg speedWind from/ knotsBaromVisibWave heightAir tempDewpointWater temp
2018-May-23 16:27N 15°15' E 071°37'2813.1
2018-May-23 14:17N 15°38' E 071°20'1012.8
2018-May-23 13:29N 15°46' E 071°14'6313.0
2018-May-23 08:38N 16°37' E 070°35'4913.3
2018-May-23 04:56N 17°16' E 070°05'512.8
2018-May-23 04:30N 17°21' E 070°02'612.9
2018-May-23 04:00N 17°26' E 069°58'2113.2
2018-May-23 02:24N 17°43' E 069°45'1413.4
2018-May-23 01:22N 17°54' E 069°36'513.3
2018-May-23 01:00N 17°58' E 069°33'713.3
2018-May-23 00:27N 18°04' E 069°29'613.5
2018-May-23 00:00N 18°09' E 069°25'713.5
2018-May-22 23:30N 18°15' E 069°21'713.3
2018-May-22 22:59N 18°20' E 069°17'713.1
2018-May-22 22:29N 18°26' E 069°13'612.9
2018-May-22 22:00N 18°31' E 069°09'713.0
2018-May-22 21:30N 18°36' E 069°05'713.2
2018-May-22 21:00N 18°41' E 069°00'1013.1
2018-May-22 20:14N 18°49' E 068°54'312.9
2018-May-22 20:00N 18°52' E 068°52'612.9
2018-May-22 19:30N 18°57' E 068°48'713.0
2018-May-22 19:00N 19°02' E 068°44'1312.9
2018-May-22 18:01N 19°13' E 068°37'113.0
2018-May-22 17:59N 19°13' E 068°36'812.8
2018-May-22 17:22N 19°19' E 068°31'513.0
2018-May-22 16:59N 19°23' E 068°28'613.2
2018-May-22 16:30N 19°28' E 068°24'713.2
2018-May-22 15:59N 19°34' E 068°20'613.3
2018-May-22 15:30N 19°39' E 068°16'713.4
2018-May-22 15:00N 19°45' E 068°12'2313.3
2018-May-22 13:16N 20°02' E 067°55'413.6
2018-May-22 13:00N 20°04' E 067°53'713.3
2018-May-22 12:30N 20°09' E 067°48'713.2
2018-May-22 12:00N 20°15' E 067°45'812.9
2018-May-22 11:23N 20°23' E 067°42'  

Dump ship's entire track history